createdAt,value
2023-04-29T00:05:14.923Z,975.85
2023-04-29T00:17:15.059Z,975.60
2023-04-29T00:29:15.457Z,975.44
2023-04-29T00:41:15.943Z,975.48
2023-04-29T00:53:16.394Z,975.82
2023-04-29T01:05:16.817Z,975.56
2023-04-29T01:17:17.290Z,975.67
2023-04-29T01:29:17.753Z,975.70
2023-04-29T01:41:18.194Z,975.64
2023-04-29T01:53:18.646Z,975.74
2023-04-29T02:05:19.089Z,975.86
2023-04-29T02:17:19.549Z,976.16
2023-04-29T02:29:20.014Z,976.08
2023-04-29T02:41:20.458Z,975.96
2023-04-29T02:53:20.937Z,976.18
2023-04-29T03:05:21.389Z,975.83
2023-04-29T03:17:21.843Z,975.98
2023-04-29T03:29:22.241Z,976.24
2023-04-29T03:41:22.703Z,976.25
2023-04-29T03:53:23.196Z,976.01
2023-04-29T04:05:23.644Z,976.07
2023-04-29T04:17:24.046Z,976.27
2023-04-29T04:29:24.530Z,976.23
2023-04-29T04:41:24.993Z,976.30
2023-04-29T04:53:25.459Z,976.33
2023-04-29T05:05:25.878Z,976.40
2023-04-29T05:17:26.429Z,976.25
2023-04-29T05:29:26.780Z,976.41
2023-04-29T05:41:27.252Z,976.50
2023-04-29T05:53:27.792Z,976.47
2023-04-29T06:05:28.893Z,976.47
2023-04-29T06:17:28.619Z,976.45
2023-04-29T06:29:29.088Z,976.35
2023-04-29T06:41:29.510Z,976.36
2023-04-29T06:53:29.985Z,976.45
2023-04-29T07:05:30.416Z,976.39
2023-04-29T07:17:30.919Z,976.25
2023-04-29T07:29:31.326Z,976.26
2023-04-29T07:41:31.769Z,976.23
2023-04-29T07:53:32.215Z,976.23
2023-04-29T08:05:33.061Z,976.29
2023-04-29T08:17:33.183Z,976.22
2023-04-29T08:29:33.598Z,976.28
2023-04-29T08:41:34.051Z,976.33
2023-04-29T08:53:34.511Z,976.41
2023-04-29T09:05:34.972Z,976.46
2023-04-29T09:17:35.440Z,976.42
2023-04-29T09:29:35.876Z,976.17
2023-04-29T09:41:36.359Z,976.23
2023-04-29T09:53:36.765Z,976.24
2023-04-29T10:05:37.249Z,976.19
2023-04-29T10:17:37.681Z,976.11
2023-04-29T10:29:38.136Z,975.91
2023-04-29T10:41:38.603Z,976.00
2023-04-29T10:53:39.061Z,975.89
2023-04-29T11:05:39.492Z,975.70
2023-04-29T11:17:39.995Z,975.74
2023-04-29T11:29:40.469Z,975.66
2023-04-29T11:41:40.874Z,975.74
2023-04-29T11:53:41.349Z,975.82
2023-04-29T12:05:41.822Z,975.69
2023-04-29T12:17:42.261Z,975.61
2023-04-29T12:29:42.699Z,975.53
2023-04-29T12:41:43.157Z,975.36
2023-04-29T12:53:43.610Z,975.26
2023-04-29T13:05:44.076Z,975.31
2023-04-29T13:17:44.540Z,975.24
2023-04-29T13:29:44.977Z,975.15
2023-04-29T13:41:46.173Z,975.14
2023-04-29T13:54:43.750Z,975.14
2023-04-29T14:05:46.475Z,975.37
2023-04-29T14:17:46.828Z,975.47
2023-04-29T14:29:47.274Z,975.45
2023-04-29T14:41:47.716Z,975.38
2023-04-29T14:53:48.188Z,975.35
2023-04-29T15:05:48.621Z,975.36
2023-04-29T15:17:49.126Z,975.38
2023-04-29T15:29:49.534Z,975.21
2023-04-29T15:41:49.993Z,975.16
2023-04-29T15:53:50.453Z,975.24
2023-04-29T16:05:50.936Z,975.51
2023-04-29T16:17:51.375Z,975.60
2023-04-29T16:29:54.821Z,975.74
2023-04-29T16:41:52.270Z,975.82
2023-04-29T16:53:52.762Z,975.84
2023-04-29T17:05:53.231Z,975.95
2023-04-29T17:17:53.622Z,976.49
2023-04-29T17:29:54.314Z,976.69
2023-04-29T17:41:54.569Z,976.89
2023-04-29T17:53:54.992Z,977.38
2023-04-29T18:05:55.473Z,977.26
2023-04-29T18:17:55.973Z,977.50
2023-04-29T18:29:56.503Z,977.67
2023-04-29T18:41:56.784Z,977.88
2023-04-29T18:53:57.259Z,977.95
2023-04-29T19:05:57.746Z,978.08
2023-04-29T19:17:58.207Z,977.99
2023-04-29T19:29:58.632Z,978.19
2023-04-29T19:41:59.074Z,978.48
2023-04-29T19:53:59.536Z,978.66
2023-04-29T20:06:00.085Z,978.74
2023-04-29T20:18:00.458Z,978.37
2023-04-29T20:30:00.922Z,978.36
2023-04-29T20:42:01.356Z,978.29
2023-04-29T20:54:01.817Z,978.59
2023-04-29T21:06:02.288Z,978.59
2023-04-29T21:18:02.794Z,978.59
2023-04-29T21:30:03.169Z,978.83
2023-04-29T21:42:03.665Z,979.20
2023-04-29T21:54:04.095Z,979.08
2023-04-29T22:06:04.511Z,978.95
2023-04-29T22:18:05.010Z,979.07
2023-04-29T22:30:05.482Z,979.30
2023-04-29T22:42:05.875Z,979.24
2023-04-29T22:54:06.347Z,979.29
2023-04-29T23:06:06.968Z,979.56
2023-04-29T23:18:07.340Z,979.63
2023-04-29T23:30:07.698Z,979.50
2023-04-29T23:42:08.159Z,979.50
2023-04-29T23:54:08.586Z,979.63
